createdAt,value
2017-08-09T00:00:27.481Z,0.00
2017-08-09T00:01:27.683Z,0.00
2017-08-09T00:02:27.455Z,0.00
2017-08-09T00:03:27.442Z,0.00
2017-08-09T00:04:27.458Z,0.00
2017-08-09T00:05:27.428Z,0.00
2017-08-09T00:06:27.431Z,0.00
2017-08-09T00:07:27.777Z,0.00
2017-08-09T00:08:27.413Z,0.00
2017-08-09T00:09:27.393Z,0.00
2017-08-09T00:10:27.398Z,0.00
2017-08-09T00:11:27.385Z,0.00
2017-08-09T00:12:27.385Z,0.00
2017-08-09T00:13:27.729Z,0.00
2017-08-09T00:14:27.363Z,0.00
2017-08-09T00:15:27.352Z,0.00
2017-08-09T00:16:27.346Z,0.00
2017-08-09T00:17:27.325Z,0.00
2017-08-09T00:18:27.320Z,0.00
2017-08-09T00:19:27.686Z,0.00
2017-08-09T00:20:27.303Z,0.00
2017-08-09T00:21:27.297Z,0.00
2017-08-09T00:22:27.294Z,0.00
2017-08-09T00:23:27.287Z,0.00
2017-08-09T00:24:27.267Z,0.00
2017-08-09T00:25:27.695Z,0.00
2017-08-09T00:26:27.250Z,0.00
2017-08-09T00:27:27.242Z,0.00
2017-08-09T00:28:27.247Z,0.00
2017-08-09T00:29:27.232Z,0.00
2017-08-09T00:30:27.224Z,0.00
2017-08-09T00:31:27.251Z,0.00
2017-08-09T00:32:27.206Z,0.00
2017-08-09T00:33:27.196Z,0.00
2017-08-09T00:34:27.186Z,0.00
2017-08-09T00:35:27.175Z,0.00
2017-08-09T00:36:27.390Z,0.00
2017-08-09T00:37:27.173Z,0.00
2017-08-09T00:38:27.165Z,0.00
2017-08-09T00:39:27.149Z,0.00
2017-08-09T00:40:27.135Z,0.00
2017-08-09T00:41:27.136Z,0.00
2017-08-09T00:42:27.429Z,0.00
2017-08-09T00:43:27.121Z,0.00
2017-08-09T00:44:27.105Z,0.00
2017-08-09T00:45:27.094Z,0.00
2017-08-09T00:46:27.101Z,0.00
2017-08-09T00:47:27.087Z,0.00
2017-08-09T00:48:27.102Z,0.00
2017-08-09T00:49:27.069Z,0.00
2017-08-09T00:50:27.069Z,0.00
2017-08-09T00:51:27.053Z,0.00
2017-08-09T00:52:27.052Z,0.00
2017-08-09T00:53:27.494Z,0.00
2017-08-09T00:54:27.039Z,0.00
2017-08-09T00:55:27.027Z,0.00
2017-08-09T00:56:27.002Z,0.00
2017-08-09T00:57:26.993Z,0.00
2017-08-09T00:58:26.983Z,0.00
2017-08-09T00:59:27.269Z,0.00
2017-08-09T01:00:26.966Z,0.00
2017-08-09T01:01:26.968Z,0.00
2017-08-09T01:02:26.966Z,0.00
2017-08-09T01:03:26.949Z,0.00
2017-08-09T01:04:26.950Z,0.00
2017-08-09T01:05:27.380Z,0.00
2017-08-09T01:06:26.938Z,0.00
2017-08-09T01:07:26.925Z,0.00
2017-08-09T01:08:26.915Z,0.00
2017-08-09T01:09:26.916Z,0.00
2017-08-09T01:10:26.913Z,0.00
2017-08-09T01:11:27.302Z,0.00
2017-08-09T01:12:26.873Z,0.00
2017-08-09T01:13:26.867Z,0.00
2017-08-09T01:14:26.863Z,0.00
2017-08-09T01:15:26.851Z,0.00
2017-08-09T01:16:26.837Z,0.00
2017-08-09T01:17:27.134Z,0.00
2017-08-09T01:18:26.820Z,0.00
2017-08-09T01:19:26.828Z,0.00
2017-08-09T01:20:26.805Z,0.00
2017-08-09T01:21:26.793Z,0.00
2017-08-09T01:22:26.796Z,0.00
2017-08-09T01:23:26.815Z,0.00
2017-08-09T01:24:26.778Z,0.00
2017-08-09T01:25:26.771Z,0.00
2017-08-09T01:26:27.229Z,0.00
2017-08-09T01:27:26.761Z,0.00
2017-08-09T01:28:26.741Z,0.00
2017-08-09T01:29:26.740Z,0.00
2017-08-09T01:30:26.720Z,0.00
2017-08-09T01:31:26.728Z,0.00
2017-08-09T01:32:27.071Z,0.00
2017-08-09T01:33:26.710Z,0.00
2017-08-09T01:34:26.701Z,0.00
2017-08-09T01:35:26.695Z,0.00
2017-08-09T01:36:26.683Z,0.00
2017-08-09T01:37:26.671Z,0.00
2017-08-09T01:38:26.964Z,0.00
2017-08-09T01:39:26.660Z,0.00
2017-08-09T01:40:26.649Z,0.00
2017-08-09T01:41:26.636Z,0.00
2017-08-09T01:42:26.621Z,0.00
2017-08-09T01:43:26.628Z,0.00
2017-08-09T01:44:26.677Z,0.00
2017-08-09T01:45:26.598Z,0.00
2017-08-09T01:46:26.587Z,0.00
2017-08-09T01:47:26.579Z,0.00
2017-08-09T01:48:27.054Z,0.00
2017-08-09T01:49:26.571Z,0.00
2017-08-09T01:50:26.557Z,0.00
2017-08-09T01:51:26.561Z,0.00
2017-08-09T01:52:26.552Z,0.00
2017-08-09T01:53:26.547Z,0.00
2017-08-09T01:54:26.565Z,0.00
2017-08-09T01:55:26.516Z,0.00
2017-08-09T01:56:26.519Z,0.00
2017-08-09T01:57:26.499Z,0.00
2017-08-09T01:58:26.501Z,0.00
2017-08-09T01:59:26.850Z,0.00
2017-08-09T02:00:26.468Z,0.00
2017-08-09T02:01:26.471Z,0.00
2017-08-09T02:02:26.460Z,0.00
2017-08-09T02:03:26.454Z,0.00
2017-08-09T02:04:26.467Z,0.00
2017-08-09T02:05:28.025Z,0.00
2017-08-09T02:06:26.433Z,0.00
2017-08-09T02:07:26.416Z,0.00
2017-08-09T02:08:26.418Z,0.00
2017-08-09T02:09:26.416Z,0.00
2017-08-09T02:10:26.399Z,0.00
2017-08-09T02:11:26.435Z,0.00
2017-08-09T02:12:26.404Z,0.00
2017-08-09T02:13:26.381Z,0.00
2017-08-09T02:14:26.359Z,0.00
2017-08-09T02:15:26.368Z,0.00
2017-08-09T02:16:26.663Z,0.00
2017-08-09T02:17:26.360Z,0.00
2017-08-09T02:18:26.329Z,0.00
2017-08-09T02:19:26.337Z,0.00
2017-08-09T02:20:26.320Z,0.00
2017-08-09T02:21:26.313Z,0.00
2017-08-09T02:22:26.342Z,0.00
2017-08-09T02:23:26.295Z,0.00
2017-08-09T02:24:26.275Z,0.00
2017-08-09T02:25:26.269Z,0.00
2017-08-09T02:26:26.267Z,0.00
2017-08-09T02:27:26.694Z,0.00
2017-08-09T02:28:26.259Z,0.00
2017-08-09T02:29:26.250Z,0.00
2017-08-09T02:30:26.231Z,0.00
2017-08-09T02:31:26.218Z,0.00
2017-08-09T02:32:26.225Z,0.00
2017-08-09T02:33:26.729Z,0.00
2017-08-09T02:34:26.208Z,0.00
2017-08-09T02:35:26.186Z,0.00
2017-08-09T02:36:26.175Z,0.00
2017-08-09T02:37:26.179Z,0.00
2017-08-09T02:38:26.164Z,0.00
2017-08-09T02:39:26.469Z,0.00
2017-08-09T02:40:26.170Z,0.00
2017-08-09T02:41:26.147Z,0.00
2017-08-09T02:42:26.128Z,0.00
2017-08-09T02:43:26.119Z,0.00
2017-08-09T02:44:26.112Z,0.00
2017-08-09T02:45:26.678Z,0.00
2017-08-09T02:46:26.105Z,0.00
2017-08-09T02:47:26.091Z,0.00
2017-08-09T02:48:26.086Z,0.00
2017-08-09T02:49:26.089Z,0.00
2017-08-09T02:50:26.072Z,0.00
2017-08-09T02:51:26.109Z,0.00
2017-08-09T02:52:26.046Z,0.00
2017-08-09T02:53:26.080Z,0.00
2017-08-09T02:54:26.042Z,0.00
2017-08-09T02:55:26.034Z,0.00
2017-08-09T02:56:26.023Z,0.00
2017-08-09T02:57:26.005Z,0.00
2017-08-09T02:58:26.050Z,0.00
2017-08-09T02:59:26.001Z,0.00
2017-08-09T03:00:25.981Z,0.00
2017-08-09T03:01:25.985Z,0.00
2017-08-09T03:02:25.986Z,0.00
2017-08-09T03:03:26.186Z,0.00
2017-08-09T03:04:25.947Z,0.00
2017-08-09T03:05:25.956Z,0.00
2017-08-09T03:06:25.940Z,0.00
2017-08-09T03:07:25.934Z,0.00
2017-08-09T03:08:25.920Z,0.00
2017-08-09T03:09:25.941Z,0.00
2017-08-09T03:10:25.901Z,0.00
2017-08-09T03:11:25.897Z,0.00
2017-08-09T03:12:25.890Z,0.00
2017-08-09T03:13:26.272Z,0.00
2017-08-09T03:14:25.876Z,0.00
2017-08-09T03:15:25.860Z,0.00
2017-08-09T03:16:25.863Z,0.00
2017-08-09T03:17:25.854Z,0.00
2017-08-09T03:18:25.845Z,0.00
2017-08-09T03:19:26.134Z,0.00
2017-08-09T03:20:25.829Z,0.00
2017-08-09T03:21:25.838Z,0.00
2017-08-09T03:22:25.815Z,0.00
2017-08-09T03:23:25.804Z,0.00
2017-08-09T03:24:25.799Z,0.00
2017-08-09T03:25:26.246Z,0.00
2017-08-09T03:26:25.768Z,0.00
2017-08-09T03:27:25.762Z,0.00
2017-08-09T03:28:25.756Z,0.00
2017-08-09T03:29:25.755Z,0.00
2017-08-09T03:30:25.749Z,0.00
2017-08-09T03:31:26.188Z,0.00
2017-08-09T03:32:25.725Z,0.00
2017-08-09T03:33:25.720Z,0.00
2017-08-09T03:34:25.719Z,0.00
2017-08-09T03:35:25.704Z,0.00
2017-08-09T03:36:25.704Z,0.00
2017-08-09T03:37:26.074Z,0.00
2017-08-09T03:38:25.683Z,0.00
2017-08-09T03:39:25.671Z,0.00
2017-08-09T03:40:25.657Z,0.00
2017-08-09T03:41:25.649Z,4.00
2017-08-09T03:42:25.635Z,4.00
2017-08-09T03:43:26.026Z,0.00
2017-08-09T03:44:25.619Z,4.00
2017-08-09T03:45:25.625Z,4.00
2017-08-09T03:46:25.619Z,4.00
2017-08-09T03:47:25.607Z,0.00
2017-08-09T03:48:25.600Z,4.00
2017-08-09T03:49:25.941Z,4.00
2017-08-09T03:50:25.572Z,4.00
2017-08-09T03:51:25.571Z,4.00
2017-08-09T03:52:25.571Z,8.00
2017-08-09T03:53:25.553Z,8.00
2017-08-09T03:54:25.550Z,12.00
2017-08-09T03:55:25.859Z,8.00
2017-08-09T03:56:25.523Z,12.00
2017-08-09T03:57:25.513Z,12.00
2017-08-09T03:58:25.503Z,12.00
2017-08-09T03:59:25.506Z,12.00
2017-08-09T04:00:25.500Z,16.00
2017-08-09T04:01:25.859Z,16.00
2017-08-09T04:02:25.481Z,16.00
2017-08-09T04:03:25.476Z,16.00
2017-08-09T04:04:25.463Z,20.00
2017-08-09T04:05:25.447Z,20.00
2017-08-09T04:06:25.434Z,20.00
2017-08-09T04:07:25.834Z,24.00
2017-08-09T04:08:25.422Z,24.00
2017-08-09T04:09:25.421Z,28.00
2017-08-09T04:10:25.405Z,28.00
2017-08-09T04:11:25.395Z,36.00
2017-08-09T04:12:25.397Z,36.00
2017-08-09T04:13:25.851Z,40.00
2017-08-09T04:14:25.381Z,40.00
2017-08-09T04:15:25.364Z,40.00
2017-08-09T04:16:25.358Z,44.00
2017-08-09T04:17:25.364Z,44.00
2017-08-09T04:18:25.344Z,48.00
2017-08-09T04:19:25.547Z,52.00
2017-08-09T04:20:25.332Z,56.00
2017-08-09T04:21:25.330Z,60.00
2017-08-09T04:22:25.304Z,60.00
2017-08-09T04:23:25.319Z,60.00
2017-08-09T04:24:25.298Z,60.00
2017-08-09T04:25:25.586Z,64.00
2017-08-09T04:26:25.276Z,72.00
2017-08-09T04:27:25.279Z,76.00
2017-08-09T04:28:25.264Z,88.00
2017-08-09T04:29:25.256Z,92.00
2017-08-09T04:30:25.236Z,96.00
2017-08-09T04:31:25.278Z,100.00
2017-08-09T04:32:25.220Z,108.00
2017-08-09T04:33:25.588Z,112.00
2017-08-09T04:34:25.224Z,116.00
2017-08-09T04:35:25.196Z,116.00
2017-08-09T04:36:25.184Z,120.00
2017-08-09T04:37:25.194Z,124.00
2017-08-09T04:38:25.166Z,128.00
2017-08-09T04:39:25.535Z,136.00
2017-08-09T04:40:25.155Z,144.00
2017-08-09T04:41:25.162Z,144.00
2017-08-09T04:42:25.135Z,148.00
2017-08-09T04:43:25.127Z,152.00
2017-08-09T04:44:25.131Z,160.00
2017-08-09T04:45:25.417Z,164.00
2017-08-09T04:46:25.122Z,176.00
2017-08-09T04:47:25.105Z,180.00
2017-08-09T04:48:25.087Z,180.00
2017-08-09T04:49:25.092Z,188.00
2017-08-09T04:50:25.068Z,192.00
2017-08-09T04:51:25.272Z,196.00
2017-08-09T04:52:25.056Z,200.00
2017-08-09T04:53:25.052Z,200.00
2017-08-09T04:54:25.037Z,208.00
2017-08-09T04:55:25.041Z,212.00
2017-08-09T04:56:25.033Z,228.00
2017-08-09T04:57:25.318Z,224.00
2017-08-09T04:58:25.004Z,232.00
2017-08-09T04:59:24.989Z,232.00
2017-08-09T05:00:24.995Z,236.00
2017-08-09T05:01:24.983Z,232.00
2017-08-09T05:02:24.969Z,228.00
2017-08-09T05:03:25.328Z,228.00
2017-08-09T05:04:24.968Z,232.00
2017-08-09T05:05:24.955Z,236.00
2017-08-09T05:06:24.939Z,248.00
2017-08-09T05:07:24.922Z,248.00
2017-08-09T05:08:24.929Z,256.00
2017-08-09T05:09:25.369Z,268.00
2017-08-09T05:10:24.902Z,276.00
2017-08-09T05:11:24.904Z,284.00
2017-08-09T05:12:24.885Z,300.00
2017-08-09T05:13:24.874Z,308.00
2017-08-09T05:14:24.869Z,328.00
2017-08-09T05:15:25.083Z,340.00
2017-08-09T05:16:24.861Z,360.00
2017-08-09T05:17:24.853Z,396.00
2017-08-09T05:18:24.848Z,408.00
2017-08-09T05:19:24.848Z,420.00
2017-08-09T05:20:24.835Z,404.00
2017-08-09T05:21:25.122Z,380.00
2017-08-09T05:22:24.803Z,348.00
2017-08-09T05:23:24.804Z,344.00
2017-08-09T05:24:24.792Z,384.00
2017-08-09T05:25:24.792Z,412.00
2017-08-09T05:26:24.780Z,400.00
2017-08-09T05:27:25.233Z,408.00
2017-08-09T05:28:24.747Z,412.00
2017-08-09T05:29:24.754Z,432.00
2017-08-09T05:30:24.747Z,484.00
2017-08-09T05:31:24.737Z,484.00
2017-08-09T05:32:24.726Z,476.00
2017-08-09T05:33:24.753Z,488.00
2017-08-09T05:34:24.700Z,484.00
2017-08-09T05:35:25.070Z,496.00
2017-08-09T05:36:24.702Z,508.00
2017-08-09T05:37:24.688Z,516.00
2017-08-09T05:38:24.677Z,508.00
2017-08-09T05:39:24.667Z,512.00
2017-08-09T05:40:24.664Z,504.00
2017-08-09T05:41:24.689Z,488.00
2017-08-09T05:42:24.639Z,492.00
2017-08-09T05:43:24.649Z,496.00
2017-08-09T05:44:24.621Z,496.00
2017-08-09T05:45:24.613Z,512.00
2017-08-09T05:46:24.928Z,512.00
2017-08-09T05:47:24.597Z,524.00
2017-08-09T05:48:24.595Z,544.00
2017-08-09T05:49:24.581Z,556.00
2017-08-09T05:50:24.575Z,580.00
2017-08-09T05:51:24.564Z,580.00
2017-08-09T05:52:24.580Z,552.00
2017-08-09T05:53:24.548Z,548.00
2017-08-09T05:54:24.544Z,564.00
2017-08-09T05:55:24.526Z,564.00
2017-08-09T05:56:24.540Z,576.00
2017-08-09T05:57:24.528Z,612.00
2017-08-09T05:58:24.535Z,672.00
2017-08-09T05:59:24.510Z,712.00
2017-08-09T06:00:24.494Z,748.00
2017-08-09T06:01:24.911Z,764.00
2017-08-09T06:02:24.470Z,752.00
2017-08-09T06:03:24.466Z,712.00
2017-08-09T06:04:24.465Z,704.00
2017-08-09T06:05:24.457Z,652.00
2017-08-09T06:06:24.452Z,588.00
2017-08-09T06:07:24.728Z,500.00
2017-08-09T06:08:24.422Z,472.00
2017-08-09T06:09:24.416Z,500.00
2017-08-09T06:10:24.407Z,536.00
2017-08-09T06:11:24.395Z,600.00
2017-08-09T06:12:24.402Z,692.00
2017-08-09T06:13:24.694Z,632.00
2017-08-09T06:14:24.373Z,696.00
2017-08-09T06:15:24.362Z,548.00
2017-08-09T06:16:24.363Z,592.00
2017-08-09T06:17:24.361Z,648.00
2017-08-09T06:18:24.361Z,504.00
2017-08-09T06:19:24.714Z,528.00
2017-08-09T06:20:24.342Z,528.00
2017-08-09T06:21:24.333Z,540.00
2017-08-09T06:22:24.307Z,540.00
2017-08-09T06:23:24.299Z,536.00
2017-08-09T06:24:24.310Z,584.00
2017-08-09T06:25:24.688Z,600.00
2017-08-09T06:26:24.290Z,572.00
2017-08-09T06:27:24.264Z,580.00
2017-08-09T06:28:24.260Z,616.00
2017-08-09T06:29:24.266Z,564.00
2017-08-09T06:30:24.264Z,564.00
2017-08-09T06:31:24.441Z,564.00
2017-08-09T06:32:24.231Z,592.00
2017-08-09T06:33:24.233Z,600.00
2017-08-09T06:34:24.224Z,664.00
2017-08-09T06:35:24.203Z,676.00
2017-08-09T06:36:24.213Z,668.00
2017-08-09T06:37:24.607Z,724.00
2017-08-09T06:38:24.187Z,792.00
2017-08-09T06:39:24.183Z,860.00
2017-08-09T06:40:24.159Z,932.00
2017-08-09T06:41:24.154Z,836.00
2017-08-09T06:42:24.161Z,708.00
2017-08-09T06:43:24.609Z,776.00
2017-08-09T06:44:24.137Z,932.00
2017-08-09T06:45:24.125Z,988.00
2017-08-09T06:46:24.121Z,1132.00
2017-08-09T06:47:24.103Z,992.00
2017-08-09T06:48:24.110Z,856.00
2017-08-09T06:49:24.461Z,948.00
2017-08-09T06:50:24.184Z,1084.00
2017-08-09T06:51:24.844Z,1148.00
2017-08-09T06:52:24.905Z,1080.00
2017-08-09T06:53:24.075Z,1056.00
2017-08-09T06:54:24.069Z,1076.00
2017-08-09T06:55:29.462Z,868.00
2017-08-09T06:56:24.835Z,972.00
2017-08-09T06:57:24.605Z,1088.00
2017-08-09T06:58:24.489Z,1132.00
2017-08-09T06:59:24.789Z,1112.00
2017-08-09T07:00:24.269Z,1096.00
2017-08-09T07:01:25.477Z,1160.00
2017-08-09T07:02:24.619Z,1220.00
2017-08-09T07:03:24.788Z,1188.00
2017-08-09T07:04:24.781Z,1000.00
2017-08-09T07:05:24.737Z,1032.00
2017-08-09T07:06:24.646Z,1120.00
2017-08-09T07:07:24.462Z,1044.00
2017-08-09T07:08:23.939Z,960.00
2017-08-09T07:09:25.004Z,816.00
2017-08-09T07:10:24.585Z,632.00
2017-08-09T07:11:24.682Z,528.00
2017-08-09T07:12:24.548Z,412.00
2017-08-09T07:13:26.578Z,296.00
2017-08-09T07:14:23.896Z,272.00
2017-08-09T07:15:23.959Z,252.00
2017-08-09T07:16:24.408Z,204.00
2017-08-09T07:17:24.405Z,196.00
2017-08-09T07:18:24.392Z,260.00
2017-08-09T07:19:25.304Z,172.00
2017-08-09T07:20:23.920Z,168.00
2017-08-09T07:21:25.441Z,180.00
2017-08-09T07:22:24.553Z,200.00
2017-08-09T07:23:23.838Z,212.00
2017-08-09T07:24:23.809Z,212.00
2017-08-09T07:25:25.145Z,244.00
2017-08-09T07:26:24.411Z,240.00
2017-08-09T07:27:24.019Z,272.00
2017-08-09T07:28:24.110Z,316.00
2017-08-09T07:29:24.139Z,308.00
2017-08-09T07:30:25.097Z,324.00
2017-08-09T07:31:24.160Z,328.00
2017-08-09T07:32:23.963Z,420.00
2017-08-09T07:33:23.910Z,416.00
2017-08-09T07:34:24.545Z,348.00
2017-08-09T07:35:23.787Z,252.00
2017-08-09T07:36:24.079Z,184.00
2017-08-09T07:37:23.713Z,172.00
2017-08-09T07:38:23.705Z,160.00
2017-08-09T07:39:23.694Z,128.00
2017-08-09T07:40:23.691Z,128.00
2017-08-09T07:41:23.691Z,152.00
2017-08-09T07:42:24.093Z,140.00
2017-08-09T07:43:23.667Z,128.00
2017-08-09T07:44:23.656Z,124.00
2017-08-09T07:45:23.634Z,116.00
2017-08-09T07:46:23.639Z,108.00
2017-08-09T07:47:23.622Z,116.00
2017-08-09T07:48:23.650Z,128.00
2017-08-09T07:49:23.614Z,144.00
2017-08-09T07:50:23.594Z,160.00
2017-08-09T07:51:23.591Z,156.00
2017-08-09T07:52:23.592Z,172.00
2017-08-09T07:53:23.571Z,144.00
2017-08-09T07:54:23.946Z,148.00
2017-08-09T07:55:23.564Z,188.00
2017-08-09T07:56:23.553Z,184.00
2017-08-09T07:57:23.536Z,188.00
2017-08-09T07:58:23.543Z,232.00
2017-08-09T07:59:23.535Z,284.00
2017-08-09T08:00:23.836Z,304.00
2017-08-09T08:01:23.505Z,260.00
2017-08-09T08:02:23.489Z,252.00
2017-08-09T08:03:23.488Z,240.00
2017-08-09T08:04:23.487Z,252.00
2017-08-09T08:05:23.481Z,288.00
2017-08-09T08:06:23.687Z,320.00
2017-08-09T08:07:23.462Z,336.00
2017-08-09T08:08:23.445Z,280.00
2017-08-09T08:09:23.443Z,308.00
2017-08-09T08:10:23.423Z,340.00
2017-08-09T08:11:23.424Z,448.00
2017-08-09T08:12:23.432Z,340.00
2017-08-09T08:13:23.399Z,396.00
2017-08-09T08:14:23.388Z,488.00
2017-08-09T08:15:23.396Z,608.00
2017-08-09T08:16:23.375Z,484.00
2017-08-09T08:17:23.736Z,428.00
2017-08-09T08:18:23.365Z,424.00
2017-08-09T08:19:23.361Z,476.00
2017-08-09T08:20:23.350Z,524.00
2017-08-09T08:21:23.335Z,480.00
2017-08-09T08:22:23.325Z,416.00
2017-08-09T08:23:23.535Z,540.00
2017-08-09T08:24:23.328Z,460.00
2017-08-09T08:25:23.299Z,476.00
2017-08-09T08:26:23.289Z,520.00
2017-08-09T08:27:23.284Z,612.00
2017-08-09T08:28:23.291Z,612.00
2017-08-09T08:29:23.722Z,584.00
2017-08-09T08:30:24.022Z,560.00
2017-08-09T08:31:24.067Z,464.00
2017-08-09T08:32:26.790Z,412.00
2017-08-09T08:33:23.472Z,348.00
2017-08-09T08:34:24.891Z,368.00
2017-08-09T08:35:24.723Z,496.00
2017-08-09T08:36:23.960Z,612.00
2017-08-09T08:37:23.769Z,724.00
2017-08-09T08:38:23.820Z,844.00
2017-08-09T08:39:23.677Z,896.00
2017-08-09T08:40:23.184Z,956.00
2017-08-09T08:41:23.676Z,1036.00
2017-08-09T08:42:23.953Z,1132.00
2017-08-09T08:43:25.857Z,1272.00
2017-08-09T08:44:23.466Z,1372.00
2017-08-09T08:45:23.139Z,1348.00
2017-08-09T08:46:23.136Z,1376.00
2017-08-09T08:47:24.315Z,1412.00
2017-08-09T08:48:23.881Z,1500.00
2017-08-09T08:49:23.198Z,1492.00
2017-08-09T08:50:23.423Z,1448.00
2017-08-09T08:51:23.082Z,1516.00
2017-08-09T08:52:23.315Z,1528.00
2017-08-09T08:53:23.169Z,1504.00
2017-08-09T08:54:23.893Z,1576.00
2017-08-09T08:55:23.773Z,1636.00
2017-08-09T08:56:23.798Z,1512.00
2017-08-09T08:57:23.719Z,1644.00
2017-08-09T08:58:23.866Z,1560.00
2017-08-09T08:59:23.520Z,1416.00
2017-08-09T09:00:23.488Z,1532.00
2017-08-09T09:01:23.637Z,1676.00
2017-08-09T09:02:23.636Z,1744.00
2017-08-09T09:03:23.732Z,1708.00
2017-08-09T09:04:25.494Z,1740.00
2017-08-09T09:05:23.416Z,1636.00
2017-08-09T09:06:23.204Z,1628.00
2017-08-09T09:07:22.966Z,1468.00
2017-08-09T09:08:22.945Z,1344.00
2017-08-09T09:09:22.957Z,1256.00
2017-08-09T09:10:23.307Z,1180.00
2017-08-09T09:11:23.730Z,1104.00
2017-08-09T09:12:23.691Z,984.00
2017-08-09T09:13:23.482Z,1352.00
2017-08-09T09:14:23.719Z,1172.00
2017-08-09T09:15:23.557Z,1456.00
2017-08-09T09:16:22.927Z,1260.00
2017-08-09T09:17:23.649Z,1248.00
2017-08-09T09:18:23.991Z,1288.00
2017-08-09T09:19:23.622Z,908.00
2017-08-09T09:20:23.587Z,1308.00
2017-08-09T09:21:23.335Z,1548.00
2017-08-09T09:22:23.550Z,1372.00
2017-08-09T09:23:23.565Z,1224.00
2017-08-09T09:24:23.381Z,1064.00
2017-08-09T09:25:22.975Z,892.00
2017-08-09T09:26:23.514Z,1100.00
2017-08-09T09:27:23.602Z,1264.00
2017-08-09T09:28:22.885Z,1236.00
2017-08-09T09:29:22.902Z,1148.00
2017-08-09T09:30:22.810Z,992.00
2017-08-09T09:31:22.781Z,944.00
2017-08-09T09:32:22.762Z,1040.00
2017-08-09T09:33:22.755Z,900.00
2017-08-09T09:34:22.759Z,800.00
2017-08-09T09:35:23.059Z,816.00
2017-08-09T09:36:22.732Z,928.00
2017-08-09T09:37:22.751Z,1128.00
2017-08-09T09:38:22.730Z,1084.00
2017-08-09T09:39:22.707Z,1064.00
2017-08-09T09:40:22.699Z,1196.00
2017-08-09T09:41:23.006Z,1232.00
2017-08-09T09:42:22.694Z,1316.00
2017-08-09T09:43:22.683Z,1436.00
2017-08-09T09:44:22.680Z,1680.00
2017-08-09T09:45:22.668Z,2284.00
2017-08-09T09:46:22.654Z,2192.00
2017-08-09T09:47:22.985Z,1948.00
2017-08-09T09:48:22.648Z,1788.00
2017-08-09T09:49:22.644Z,2044.00
2017-08-09T09:50:22.636Z,2740.00
2017-08-09T09:51:22.617Z,1584.00
2017-08-09T09:52:22.633Z,1228.00
2017-08-09T09:53:22.632Z,1384.00
2017-08-09T09:54:22.597Z,1492.00
2017-08-09T09:55:22.590Z,1528.00
2017-08-09T09:56:22.579Z,1840.00
2017-08-09T09:57:22.941Z,2004.00
2017-08-09T09:58:22.567Z,1460.00
2017-08-09T09:59:22.559Z,1416.00
2017-08-09T10:00:22.551Z,1560.00
2017-08-09T10:01:22.548Z,1156.00
2017-08-09T10:02:22.554Z,1148.00
2017-08-09T10:03:22.934Z,1788.00
2017-08-09T10:04:22.537Z,1668.00
2017-08-09T10:05:22.528Z,1224.00
2017-08-09T10:06:22.530Z,1428.00
2017-08-09T10:07:22.500Z,1348.00
2017-08-09T10:08:22.503Z,1336.00
2017-08-09T10:09:22.856Z,1384.00
2017-08-09T10:10:22.493Z,1448.00
2017-08-09T10:11:22.473Z,1912.00
2017-08-09T10:12:22.465Z,2168.00
2017-08-09T10:13:22.472Z,2260.00
2017-08-09T10:14:22.460Z,2712.00
2017-08-09T10:15:22.748Z,3244.00
2017-08-09T10:16:22.454Z,2828.00
2017-08-09T10:17:22.427Z,1532.00
2017-08-09T10:18:22.426Z,1532.00
2017-08-09T10:19:22.428Z,2000.00
2017-08-09T10:20:22.420Z,1676.00
2017-08-09T10:21:22.434Z,2468.00
2017-08-09T10:22:22.404Z,2356.00
2017-08-09T10:23:22.395Z,2500.00
2017-08-09T10:24:22.376Z,1660.00
2017-08-09T10:25:22.379Z,2652.00
2017-08-09T10:26:22.663Z,1772.00
2017-08-09T10:27:22.372Z,2168.00
2017-08-09T10:28:22.352Z,2716.00
2017-08-09T10:29:22.362Z,1460.00
2017-08-09T10:30:22.335Z,1320.00
2017-08-09T10:31:22.339Z,1820.00
2017-08-09T10:32:22.631Z,1752.00
2017-08-09T10:33:22.314Z,2760.00
2017-08-09T10:34:22.312Z,2172.00
2017-08-09T10:35:22.314Z,1592.00
2017-08-09T10:36:22.299Z,1208.00
2017-08-09T10:37:22.311Z,1244.00
2017-08-09T10:38:22.508Z,1704.00
2017-08-09T10:39:22.275Z,1076.00
2017-08-09T10:40:22.282Z,1164.00
2017-08-09T10:41:22.275Z,1688.00
2017-08-09T10:42:22.252Z,1980.00
2017-08-09T10:43:22.257Z,1948.00
2017-08-09T10:44:22.457Z,1952.00
2017-08-09T10:45:22.235Z,1768.00
2017-08-09T10:46:22.224Z,1984.00
2017-08-09T10:47:22.224Z,1716.00
2017-08-09T10:48:22.226Z,2044.00
2017-08-09T10:49:22.232Z,1960.00
2017-08-09T10:50:22.647Z,2132.00
2017-08-09T10:51:22.191Z,1588.00
2017-08-09T10:52:22.189Z,2028.00
2017-08-09T10:53:22.189Z,1940.00
2017-08-09T10:54:22.191Z,2068.00
2017-08-09T10:55:22.183Z,2136.00
2017-08-09T10:56:22.508Z,2288.00
2017-08-09T10:57:22.151Z,2576.00
2017-08-09T10:58:22.155Z,2632.00
2017-08-09T10:59:22.149Z,2116.00
2017-08-09T11:00:22.136Z,3160.00
2017-08-09T11:01:22.133Z,3088.00
2017-08-09T11:02:22.152Z,2836.00
2017-08-09T11:03:22.122Z,2612.00
2017-08-09T11:04:22.113Z,3228.00
2017-08-09T11:05:22.097Z,2820.00
2017-08-09T11:06:22.512Z,2748.00
2017-08-09T11:07:22.086Z,2372.00
2017-08-09T11:08:22.085Z,2844.00
2017-08-09T11:09:22.073Z,2704.00
2017-08-09T11:10:22.076Z,1660.00
2017-08-09T11:11:22.075Z,2056.00
2017-08-09T11:12:22.087Z,2068.00
2017-08-09T11:13:22.060Z,2076.00
2017-08-09T11:14:22.049Z,1592.00
2017-08-09T11:15:22.029Z,2240.00
2017-08-09T11:16:22.036Z,2492.00
2017-08-09T11:17:22.064Z,2684.00
2017-08-09T11:18:22.024Z,3004.00
2017-08-09T11:19:22.005Z,3988.00
2017-08-09T11:20:22.012Z,4388.00
2017-08-09T11:21:22.005Z,13324.00
2017-08-09T11:22:22.474Z,14464.00
2017-08-09T11:23:21.977Z,16384.00
2017-08-09T11:24:21.971Z,11176.00
2017-08-09T11:25:21.976Z,15232.00
2017-08-09T11:26:21.964Z,20448.00
2017-08-09T11:27:21.970Z,20512.00
2017-08-09T11:28:22.327Z,24288.00
2017-08-09T11:29:21.954Z,13504.00
2017-08-09T11:30:21.954Z,13248.00
2017-08-09T11:31:21.927Z,5088.00
2017-08-09T11:32:21.937Z,3480.00
2017-08-09T11:33:21.918Z,4972.00
2017-08-09T11:34:22.381Z,8576.00
2017-08-09T11:35:21.916Z,8768.00
2017-08-09T11:36:21.916Z,31424.00
2017-08-09T11:37:21.911Z,68896.00
2017-08-09T11:38:21.892Z,50304.00
2017-08-09T11:39:21.907Z,7492.00
2017-08-09T11:40:22.324Z,3848.00
2017-08-09T11:41:21.891Z,17440.00
2017-08-09T11:42:21.870Z,7444.00
2017-08-09T11:43:21.861Z,4380.00
2017-08-09T11:44:21.871Z,4344.00
2017-08-09T11:45:21.849Z,2940.00
2017-08-09T11:46:22.313Z,2132.00
2017-08-09T11:47:21.846Z,1412.00
2017-08-09T11:48:21.841Z,2000.00
2017-08-09T11:49:21.845Z,12360.00
2017-08-09T11:50:21.826Z,6060.00
2017-08-09T11:51:21.819Z,3520.00
2017-08-09T11:52:22.223Z,1744.00
2017-08-09T11:53:21.813Z,9800.00
2017-08-09T11:54:21.816Z,9080.00
2017-08-09T11:55:21.796Z,10436.00
2017-08-09T11:56:21.793Z,11688.00
2017-08-09T11:57:21.799Z,8312.00
2017-08-09T11:58:22.111Z,2340.00
2017-08-09T11:59:21.789Z,10840.00
2017-08-09T12:00:21.773Z,25312.00
2017-08-09T12:01:21.775Z,35840.00
2017-08-09T12:02:21.768Z,45344.00
2017-08-09T12:03:21.754Z,24480.00
2017-08-09T12:04:22.045Z,42752.00
2017-08-09T12:05:21.760Z,44288.00
2017-08-09T12:06:21.740Z,61408.00
2017-08-09T12:07:21.746Z,23008.00
2017-08-09T12:08:21.752Z,3952.00
2017-08-09T12:09:21.723Z,37824.00
2017-08-09T12:10:22.167Z,54240.00
2017-08-09T12:11:21.714Z,5124.00
2017-08-09T12:12:21.716Z,0.00
2017-08-09T12:13:21.711Z,41472.00
2017-08-09T12:14:21.720Z,35648.00
2017-08-09T12:15:21.706Z,38176.00
2017-08-09T12:16:22.147Z,7676.00
2017-08-09T12:17:21.691Z,3140.00
2017-08-09T12:18:21.697Z,23328.00
2017-08-09T12:19:21.679Z,27424.00
2017-08-09T12:20:21.677Z,9716.00
2017-08-09T12:21:21.683Z,7712.00
2017-08-09T12:22:22.050Z,3684.00
2017-08-09T12:23:21.665Z,3484.00
2017-08-09T12:24:21.673Z,3112.00
2017-08-09T12:25:21.666Z,2960.00
2017-08-09T12:26:21.662Z,3000.00
2017-08-09T12:27:21.662Z,3072.00
2017-08-09T12:28:22.016Z,3604.00
2017-08-09T12:29:21.638Z,1680.00
2017-08-09T12:30:21.642Z,1456.00
2017-08-09T12:31:21.641Z,1552.00
2017-08-09T12:32:21.636Z,1696.00
2017-08-09T12:33:21.617Z,2964.00
2017-08-09T12:34:21.655Z,2552.00
2017-08-09T12:35:21.614Z,2892.00